Bloomer, Wisconsin
Current Conditions -  °F | °C
As of 7:55 AM on Monday 20 Oct 2014 (Local Time) from KY23 Reporting Station
Clear Clear  
Wind Chill:   Ceiling: Unl
Heat Index:   Visibility: 10mi
Dew Point:   Wind: 3mph
Humidity: 97%   Direction: 300°WNW
Pressure: 29.93"   Gusts: NA
Location:  45.1°N, 91.49°W
Report Text: KY23 201255Z AUTO 30003KT 10SM CLR 05/04 A2993 RMK AO2 T00470043
Loading
Personal Weather Stations






























Interactive Weather Map
Tropical Storm Tracking
New forecast layout! Learn more

10-Day Weather Forecast

Advertisements
Track Severe Weather on mobile